EGLD weather

Denham Aerodrome
Gerrards Cross, England, United Kingdom

Public forecast

Using degrees Celsius for public forecast. Weather courtesy of forecast.io.

Closest aviation weather report (METAR) to Denham Aerodrome

Closest report is RAF Northolt, 4.1 nm (7.6 km) ESE. Retrieved 2019/10/19 12:50 UTC (27 minutes ago):

EGWU 191250Z 25010KT 9999 SCT030 BKN050 14/07 Q1000 NOSIG

Closest aviation forecast (TAF) to Denham Aerodrome

Closest forecast is RAF Northolt, 4.1 nm (7.6 km) ESE. Retrieved 2019/10/19 15:00 UTC (0 seconds ago):

TAF EGWU 191340Z 1915/2009 23010KT 9999 SCT030 PROB30 TEMPO 1915/1917 7000 SHRA SCT024 PROB40 1922/2006 7000 HZ PROB30 2004/2008 2000 BR BKN004